Terminal Aerodrome Forecast
Issued by NWS

Home | Current Version | Previous Version | Text Only | Print | Product List | Glossary On
Versions: 1 2 3 4 5 6 7 8 9 10 11 12 13 14 15 16 17 18 19 20 21 22
000
FTUS46 KOTX 250822 AAB
TAFCOE
TAF AMD
KCOE 250822Z 2508/2606 17011KT P6SM SCT030 BKN110
     FM251300 21012KT 5SM -SN SCT009 OVC020
     FM251400 20020G22KT 1SM -SN OVC015
     FM251900 21024G32KT 2SM -SN OVC015
     FM260100 24017G24KT 5SM -SN OVC025
     FM260400 25009G16KT P6SM BKN050=

USA.gov is the U.S. government's official web portal to all federal, state and local government web resources and services.